This is the latest recevied weather packets stored in our database for station/object VE3EP-1. If no packets are shown the sender has not sent any weather packets the latest 10 day(s).
| Time | Temp. | Humidity | Pressure | Rain* | Wind** | Luminosity | Snow |
|---|---|---|---|---|---|---|---|
| 1777891330 | 7.22° C | 77% | 1008.9 hPa | 0 mm | - | - | - |
| 1777890729 | 7.22° C | 77% | 1009 hPa | 0 mm | - | - | - |
| 1777890128 | 7.22° C | 77% | 1008.9 hPa | 0 mm | - | - | - |
| 1777889530 | 7.22° C | 78% | 1008.9 hPa | 0 mm | - | - | - |
| 1777888929 | 7.78° C | 79% | 1008.7 hPa | 0 mm | - | - | - |
| 1777888328 | 7.78° C | 79% | 1008.8 hPa | 0 mm | - | - | - |
| 1777887728 | 7.78° C | 78% | 1008.7 hPa | 0 mm | - | - | - |
| 1777887128 | 8.33° C | 77% | 1008.8 hPa | 0 mm | - | - | - |
| 1777886528 | 8.89° C | 75% | 1008.7 hPa | 0 mm | - | - | - |
| 1777885929 | 8.33° C | 76% | 1008.7 hPa | 0 mm | - | - | - |
| 1777885328 | 8.33° C | 76% | 1008.6 hPa | 0 mm | - | - | - |
| 1777884728 | 8.33° C | 76% | 1008.9 hPa | 0 mm | - | - | - |
| 1777883528 | 7.78° C | 80% | 1008.7 hPa | 0 mm | - | - | - |
| 1777882928 | 7.22° C | 81% | 1008.7 hPa | 0 mm | - | - | - |
| 1777882329 | 7.22° C | 81% | 1008.9 hPa | 0 mm | - | - | - |
| 1777881728 | 7.22° C | 80% | 1008.7 hPa | 0 mm | - | - | - |
| 1777880530 | 7.22° C | 78% | 1008.9 hPa | 0 mm | - | - | - |
| 1777879929 | 7.78° C | 77% | 1009 hPa | 0 mm | - | - | - |
| 1777878728 | 8.89° C | 72% | 1009 hPa | 0 mm | - | - | - |
| 1777878128 | 8.33° C | 73% | 1008.9 hPa | 0 mm | - | - | - |
| 1777877528 | 8.33° C | 75% | 1009 hPa | 0 mm | - | - | - |
| 1777876929 | 7.78° C | 76% | 1009.2 hPa | 0 mm | - | - | - |
| 1777876329 | 7.78° C | 80% | 1009.1 hPa | 0 mm | - | - | - |
| 1777875728 | 7.22° C | 80% | 1009.3 hPa | 0 mm | - | - | - |
| 1777875129 | 7.78° C | 81% | 1009.2 hPa | 0 mm | - | - | - |
* Rain latest hour (hover to see other rain measurements)
** Current wind speed in m/s (hover to see current wind gust speed)